createdAt,value
2017-08-23T00:00:12.917Z,208.60
2017-08-23T00:02:23.646Z,186.20
2017-08-23T00:04:31.676Z,175.73
2017-08-23T00:06:47.596Z,154.77
2017-08-23T00:09:00.762Z,156.70
2017-08-23T00:11:13.204Z,135.67
2017-08-23T00:13:24.652Z,120.23
2017-08-23T00:15:35.913Z,112.20
2017-08-23T00:17:50.244Z,110.00
2017-08-23T00:20:13.257Z,97.60
2017-08-23T00:22:44.671Z,89.93
2017-08-23T00:25:12.706Z,81.57
2017-08-23T00:27:21.399Z,94.37
2017-08-23T00:29:37.821Z,77.87
2017-08-23T00:31:55.236Z,77.17
2017-08-23T00:34:04.979Z,56.40
2017-08-23T00:36:25.873Z,54.40
2017-08-23T00:41:18.618Z,50.93
2017-08-23T00:43:25.877Z,38.10
2017-08-23T00:45:38.373Z,50.43
2017-08-23T00:47:50.870Z,41.20
2017-08-23T00:50:01.630Z,40.13
2017-08-23T00:52:15.953Z,40.73
2017-08-23T00:54:23.233Z,29.20
2017-08-23T00:56:37.113Z,36.83
2017-08-23T00:58:54.096Z,42.83
2017-08-23T01:01:03.181Z,31.60
2017-08-23T01:03:18.498Z,26.13
2017-08-23T01:05:31.952Z,26.30
2017-08-23T01:07:44.572Z,26.93
2017-08-23T01:10:08.339Z,25.53
2017-08-23T01:12:30.061Z,26.10
2017-08-23T01:14:37.156Z,22.70
2017-08-23T01:16:53.640Z,22.50
2017-08-23T01:19:04.046Z,20.80
2017-08-23T01:21:10.421Z,22.70
2017-08-23T01:23:43.929Z,19.00
2017-08-23T01:25:58.331Z,19.50
2017-08-23T01:28:05.527Z,20.23
2017-08-23T01:30:14.459Z,15.50
2017-08-23T01:32:24.252Z,17.43
2017-08-23T01:34:32.185Z,14.93
2017-08-23T01:36:41.208Z,13.50
2017-08-23T01:38:52.126Z,11.20
2017-08-23T01:41:03.038Z,14.70
2017-08-23T01:43:17.312Z,10.60
2017-08-23T01:45:24.999Z,12.97
2017-08-23T01:47:31.724Z,9.27
2017-08-23T01:49:39.117Z,11.00
2017-08-23T01:51:56.492Z,10.07
2017-08-23T01:54:03.886Z,12.70
2017-08-23T01:56:11.959Z,12.10
2017-08-23T01:58:18.927Z,15.20
2017-08-23T02:00:25.931Z,9.63
2017-08-23T02:02:32.196Z,6.77
2017-08-23T02:04:38.327Z,7.00
2017-08-23T02:06:51.779Z,9.80
2017-08-23T02:09:01.447Z,9.63
2017-08-23T02:11:08.032Z,7.57
2017-08-23T02:13:14.884Z,7.20
2017-08-23T02:15:21.958Z,6.10
2017-08-23T02:17:28.236Z,7.30
2017-08-23T02:19:34.580Z,7.13
2017-08-23T02:21:44.198Z,6.80
2017-08-23T02:23:55.119Z,6.87
2017-08-23T02:26:04.527Z,8.30
2017-08-23T02:28:21.112Z,6.60
2017-08-23T02:30:27.260Z,6.23
2017-08-23T02:32:33.317Z,5.57
2017-08-23T02:34:41.357Z,6.13
2017-08-23T02:36:48.069Z,5.50
2017-08-23T02:38:54.125Z,5.20
2017-08-23T02:41:02.488Z,5.13
2017-08-23T02:43:11.524Z,4.90
2017-08-23T02:45:17.195Z,5.43
2017-08-23T02:47:31.844Z,5.83
2017-08-23T02:49:39.960Z,5.80
2017-08-23T02:51:56.508Z,5.13
2017-08-23T02:54:04.375Z,4.63
2017-08-23T02:56:11.871Z,8.37
2017-08-23T02:58:18.797Z,4.53
2017-08-23T03:00:25.508Z,4.50
2017-08-23T03:02:32.078Z,5.17
2017-08-23T03:04:38.381Z,7.53
2017-08-23T03:06:48.975Z,4.60
2017-08-23T03:08:56.853Z,3.80
2017-08-23T03:11:04.865Z,4.77
2017-08-23T03:13:10.894Z,4.07
2017-08-23T03:15:21.234Z,4.00
2017-08-23T03:17:28.026Z,4.50
2017-08-23T03:19:35.164Z,4.43
2017-08-23T03:21:40.990Z,4.53
2017-08-23T03:23:50.398Z,4.73
2017-08-23T03:25:59.749Z,9.10
2017-08-23T03:28:06.705Z,3.80
2017-08-23T03:30:13.452Z,3.93
2017-08-23T03:32:20.771Z,4.63
2017-08-23T03:34:29.056Z,6.33
2017-08-23T03:36:35.849Z,4.17
2017-08-23T03:38:43.540Z,4.50
2017-08-23T03:40:59.122Z,5.23
2017-08-23T03:43:04.741Z,6.30
2017-08-23T03:45:12.553Z,6.43
2017-08-23T03:47:19.190Z,5.30
2017-08-23T03:49:26.607Z,5.17
2017-08-23T03:51:32.781Z,5.73
2017-08-23T03:53:39.709Z,7.90
2017-08-23T03:55:51.979Z,5.10
2017-08-23T03:57:59.934Z,5.10
2017-08-23T04:00:08.020Z,4.70
2017-08-23T04:02:15.093Z,5.07
2017-08-23T04:04:22.320Z,6.33
2017-08-23T04:06:29.300Z,5.47
2017-08-23T04:08:37.355Z,7.93
2017-08-23T04:10:59.469Z,6.83
2017-08-23T04:13:04.935Z,5.67
2017-08-23T04:15:13.057Z,6.10
2017-08-23T04:17:19.642Z,5.37
2017-08-23T04:19:26.507Z,5.97
2017-08-23T04:21:33.889Z,9.50
2017-08-23T04:23:39.745Z,7.60
2017-08-23T04:25:48.027Z,6.03
2017-08-23T04:27:56.379Z,5.57
2017-08-23T04:30:05.359Z,7.07
2017-08-23T04:32:12.209Z,5.40
2017-08-23T04:34:20.302Z,6.80
2017-08-23T04:36:27.962Z,5.03
2017-08-23T04:38:34.342Z,5.63
2017-08-23T04:40:40.054Z,5.53
2017-08-23T04:42:57.595Z,9.13
2017-08-23T04:45:04.888Z,7.80
2017-08-23T04:47:13.003Z,5.37
2017-08-23T04:49:19.541Z,4.90
2017-08-23T04:51:25.850Z,5.90
2017-08-23T04:53:33.486Z,6.70
2017-08-23T04:55:39.456Z,7.10
2017-08-23T04:57:50.910Z,5.13
2017-08-23T05:00:02.590Z,6.43
2017-08-23T05:02:09.898Z,5.43
2017-08-23T05:04:22.518Z,6.00
2017-08-23T05:06:29.001Z,5.20
2017-08-23T05:08:35.359Z,5.50
2017-08-23T05:10:49.381Z,7.13
2017-08-23T05:12:56.725Z,5.67
2017-08-23T05:15:08.426Z,12.27
2017-08-23T05:17:14.184Z,7.37
2017-08-23T05:19:20.908Z,9.10
2017-08-23T05:21:26.893Z,6.20
2017-08-23T05:23:33.003Z,6.07
2017-08-23T05:25:38.640Z,4.63
2017-08-23T05:27:53.974Z,7.43
2017-08-23T05:30:04.448Z,5.17
2017-08-23T05:32:11.252Z,6.40
2017-08-23T05:34:18.462Z,4.70
2017-08-23T05:36:24.818Z,5.13
2017-08-23T05:38:39.069Z,5.60
2017-08-23T05:40:51.253Z,4.60
2017-08-23T05:43:01.517Z,9.37
2017-08-23T05:45:10.510Z,6.00
2017-08-23T05:47:17.468Z,5.07
2017-08-23T05:49:25.669Z,6.70
2017-08-23T05:54:34.398Z,6.20
2017-08-23T05:56:40.777Z,5.40
2017-08-23T05:58:54.208Z,5.37
2017-08-23T06:01:03.612Z,7.13
2017-08-23T06:03:10.976Z,18.00
2017-08-23T06:05:18.138Z,10.23
2017-08-23T06:07:24.253Z,12.10
2017-08-23T06:09:30.616Z,17.87
2017-08-23T06:11:38.703Z,9.23
2017-08-23T06:13:48.258Z,61.50
2017-08-23T06:15:56.042Z,396.47
2017-08-23T06:18:05.798Z,553.57
2017-08-23T06:20:15.607Z,370.27
2017-08-23T06:22:22.184Z,304.47
2017-08-23T06:24:28.721Z,160.93
2017-08-23T06:26:34.735Z,181.83
2017-08-23T06:28:42.524Z,171.13
2017-08-23T06:30:52.365Z,118.70
2017-08-23T06:33:00.828Z,207.57
2017-08-23T06:35:07.905Z,440.53
2017-08-23T06:37:16.606Z,479.63
2017-08-23T06:39:26.660Z,399.17
2017-08-23T06:41:32.706Z,309.20
2017-08-23T06:43:38.511Z,303.47
2017-08-23T06:45:51.068Z,189.73
2017-08-23T06:47:59.735Z,207.50
2017-08-23T06:50:06.482Z,159.97
2017-08-23T06:52:15.632Z,152.13
2017-08-23T06:54:21.223Z,139.40
2017-08-23T06:56:27.665Z,152.23
2017-08-23T06:58:35.039Z,101.97
2017-08-23T07:00:42.273Z,101.43
2017-08-23T07:02:52.796Z,95.67
2017-08-23T07:05:00.500Z,101.90
2017-08-23T07:07:07.608Z,83.10
2017-08-23T07:09:14.432Z,72.80
2017-08-23T07:11:21.475Z,59.40
2017-08-23T07:13:36.084Z,65.43
2017-08-23T07:15:42.923Z,61.97
2017-08-23T07:17:54.543Z,59.30
2017-08-23T07:20:54.232Z,58.27
2017-08-23T07:23:06.364Z,48.67
2017-08-23T07:25:12.919Z,50.50
2017-08-23T07:27:18.854Z,50.27
2017-08-23T07:29:24.497Z,41.53
2017-08-23T07:31:30.210Z,44.90
2017-08-23T07:33:39.619Z,34.07
2017-08-23T07:35:50.966Z,36.17
2017-08-23T07:37:58.173Z,32.20
2017-08-23T07:40:07.291Z,27.23
2017-08-23T07:42:18.561Z,36.83
2017-08-23T07:44:26.259Z,28.00
2017-08-23T07:46:37.017Z,25.30
2017-08-23T07:48:49.543Z,22.70
2017-08-23T07:53:18.801Z,24.30
2017-08-23T07:55:29.390Z,23.70
2017-08-23T07:57:37.418Z,18.00
2017-08-23T07:59:50.990Z,19.03
2017-08-23T08:02:02.069Z,18.13
2017-08-23T08:04:12.472Z,15.07
2017-08-23T08:06:19.467Z,20.03
2017-08-23T08:08:30.435Z,12.07
2017-08-23T08:10:37.730Z,25.90
2017-08-23T08:12:49.902Z,17.73
2017-08-23T08:15:01.193Z,16.43
2017-08-23T08:17:08.067Z,12.63
2017-08-23T08:19:15.418Z,16.27
2017-08-23T08:21:21.500Z,11.87
2017-08-23T08:23:29.611Z,14.00
2017-08-23T08:25:36.630Z,13.93
2017-08-23T08:27:53.971Z,12.13
2017-08-23T08:30:02.216Z,10.27
2017-08-23T08:32:14.230Z,17.73
2017-08-23T08:34:21.443Z,12.00
2017-08-23T08:36:28.164Z,15.13
2017-08-23T08:38:34.846Z,8.43
2017-08-23T08:40:44.389Z,9.33
2017-08-23T08:42:58.987Z,8.50
2017-08-23T08:45:06.181Z,11.77
2017-08-23T08:47:12.291Z,11.73
2017-08-23T08:49:22.116Z,9.03
2017-08-23T08:51:27.875Z,10.83
2017-08-23T08:53:34.303Z,11.47
2017-08-23T08:55:39.962Z,10.10
2017-08-23T08:57:51.913Z,7.10
2017-08-23T08:59:59.003Z,7.30
2017-08-23T09:02:04.871Z,9.90
2017-08-23T09:04:10.567Z,10.53
2017-08-23T09:06:18.213Z,7.83
2017-08-23T09:08:26.313Z,12.57
2017-08-23T09:10:33.671Z,8.97
2017-08-23T09:12:40.862Z,7.53
2017-08-23T09:14:56.976Z,7.83
2017-08-23T09:19:20.342Z,7.00
2017-08-23T09:21:29.082Z,10.40
2017-08-23T09:23:38.257Z,8.03
2017-08-23T09:25:50.044Z,6.20
2017-08-23T09:28:02.403Z,8.13
2017-08-23T09:30:09.442Z,5.43
2017-08-23T09:32:18.022Z,5.20
2017-08-23T09:34:24.824Z,6.50
2017-08-23T09:36:30.537Z,7.73
2017-08-23T09:38:38.223Z,6.90
2017-08-23T09:40:44.267Z,5.10
2017-08-23T09:42:56.221Z,9.60
2017-08-23T09:45:02.549Z,5.60
2017-08-23T09:47:10.324Z,6.63
2017-08-23T09:49:29.928Z,7.10
2017-08-23T09:51:36.396Z,6.00
2017-08-23T09:53:52.425Z,4.90
2017-08-23T09:56:04.226Z,4.87
2017-08-23T09:58:11.605Z,6.37
2017-08-23T10:00:17.654Z,4.30
2017-08-23T10:02:23.505Z,4.60
2017-08-23T10:04:30.563Z,5.23
2017-08-23T10:06:37.593Z,6.87
2017-08-23T10:08:52.387Z,6.87
2017-08-23T10:11:03.797Z,4.37
2017-08-23T10:13:12.182Z,6.57
2017-08-23T10:15:19.599Z,6.80
2017-08-23T10:17:25.855Z,6.50
2017-08-23T10:19:32.219Z,4.87
2017-08-23T10:21:38.212Z,7.53
2017-08-23T10:23:50.076Z,5.10
2017-08-23T10:25:58.121Z,9.77
2017-08-23T10:28:04.739Z,7.23
2017-08-23T10:30:11.495Z,6.97
2017-08-23T10:32:18.660Z,4.97
2017-08-23T10:34:28.327Z,6.53
2017-08-23T10:36:34.921Z,5.53
2017-08-23T10:38:41.957Z,5.93
2017-08-23T10:40:50.990Z,7.40
2017-08-23T10:43:03.325Z,6.83
2017-08-23T10:45:09.832Z,9.00
2017-08-23T10:47:17.254Z,7.63
2017-08-23T10:49:24.162Z,6.53
2017-08-23T10:51:31.364Z,4.90
2017-08-23T10:53:37.576Z,6.77
2017-08-23T10:57:57.273Z,7.13
2017-08-23T11:00:04.525Z,5.00
2017-08-23T11:02:16.400Z,4.87
2017-08-23T11:04:23.070Z,8.00
2017-08-23T11:06:29.293Z,6.57
2017-08-23T11:08:36.144Z,6.40
2017-08-23T11:10:44.535Z,9.53
2017-08-23T11:12:55.973Z,4.67
2017-08-23T11:15:08.561Z,5.40
2017-08-23T11:17:25.990Z,5.73
2017-08-23T11:21:56.533Z,8.13
2017-08-23T11:24:04.305Z,7.40
2017-08-23T11:26:09.930Z,8.80
2017-08-23T11:28:17.527Z,6.13
2017-08-23T11:30:23.934Z,9.27
2017-08-23T11:32:31.967Z,7.73
2017-08-23T11:34:39.555Z,6.60
2017-08-23T11:36:48.869Z,5.27
2017-08-23T11:38:56.540Z,9.03
2017-08-23T11:41:03.156Z,5.67
2017-08-23T11:43:14.234Z,5.37
2017-08-23T11:45:21.638Z,7.13
2017-08-23T11:47:32.004Z,7.03
2017-08-23T11:49:37.780Z,5.10
2017-08-23T11:51:46.117Z,5.47
2017-08-23T11:53:57.143Z,6.97
2017-08-23T11:56:08.793Z,5.17
2017-08-23T11:58:15.294Z,5.63
2017-08-23T12:00:22.078Z,6.53
2017-08-23T12:02:31.296Z,11.23
2017-08-23T12:04:37.993Z,12.57
2017-08-23T12:06:47.690Z,10.27
2017-08-23T12:08:55.545Z,5.60
2017-08-23T12:11:02.662Z,6.73
2017-08-23T12:13:10.302Z,6.13
2017-08-23T12:15:16.718Z,7.07
2017-08-23T12:17:26.532Z,11.00
2017-08-23T12:19:32.634Z,9.73
2017-08-23T12:21:38.129Z,5.27
2017-08-23T12:23:49.718Z,7.60
2017-08-23T12:25:58.028Z,5.83
2017-08-23T12:28:04.877Z,6.47
2017-08-23T12:30:14.984Z,4.80
2017-08-23T12:32:22.531Z,6.27
2017-08-23T12:34:28.663Z,9.33
2017-08-23T12:36:40.365Z,5.63
2017-08-23T12:38:51.585Z,5.87
2017-08-23T12:41:02.906Z,7.20
2017-08-23T12:43:09.094Z,6.63
2017-08-23T12:45:18.803Z,5.53
2017-08-23T12:49:34.620Z,5.10
2017-08-23T12:51:40.283Z,4.20
2017-08-23T12:53:49.930Z,4.33
2017-08-23T12:55:58.078Z,6.20
2017-08-23T12:58:05.568Z,6.63
2017-08-23T13:00:15.308Z,5.07
2017-08-23T13:02:23.008Z,7.00
2017-08-23T13:04:29.006Z,5.93
2017-08-23T13:06:34.772Z,5.70
2017-08-23T13:08:40.989Z,4.90
2017-08-23T13:10:49.211Z,6.63
2017-08-23T13:12:55.075Z,6.57
2017-08-23T13:15:01.210Z,7.00
2017-08-23T13:17:07.790Z,4.57
2017-08-23T13:19:13.998Z,4.90
2017-08-23T13:21:19.934Z,4.33
2017-08-23T13:23:28.835Z,4.00
2017-08-23T13:25:35.122Z,3.77
2017-08-23T13:27:42.470Z,4.07
2017-08-23T13:30:00.059Z,4.90
2017-08-23T13:32:09.373Z,4.17
2017-08-23T13:34:15.010Z,4.37
2017-08-23T13:36:21.467Z,5.60
2017-08-23T13:38:30.924Z,3.90
2017-08-23T13:40:38.708Z,4.13
2017-08-23T13:42:52.130Z,5.20
2017-08-23T13:45:05.743Z,5.60
2017-08-23T13:47:11.464Z,4.20
2017-08-23T13:49:20.391Z,4.60
2017-08-23T13:51:31.999Z,4.23
2017-08-23T13:53:42.158Z,5.00
2017-08-23T13:55:56.171Z,4.57
2017-08-23T13:58:06.510Z,4.73
2017-08-23T14:00:15.672Z,4.03
2017-08-23T14:02:23.087Z,5.37
2017-08-23T14:04:30.557Z,4.73
2017-08-23T14:06:41.902Z,4.70
2017-08-23T14:08:53.964Z,4.90
2017-08-23T14:11:04.461Z,10.23
2017-08-23T14:13:14.359Z,10.00
2017-08-23T14:15:27.621Z,5.07
2017-08-23T14:17:34.953Z,5.83
2017-08-23T14:19:43.460Z,7.30
2017-08-23T14:21:55.407Z,569.70
2017-08-23T14:24:04.194Z,917.13
2017-08-23T14:26:12.244Z,451.40
2017-08-23T14:28:18.841Z,342.30
2017-08-23T14:30:25.288Z,207.30
2017-08-23T14:32:33.495Z,208.27
2017-08-23T14:34:41.823Z,180.20
2017-08-23T14:36:51.827Z,167.30
2017-08-23T14:39:00.414Z,140.97
2017-08-23T14:41:07.549Z,131.70
2017-08-23T14:43:14.394Z,139.17
2017-08-23T14:45:21.015Z,130.37
2017-08-23T14:47:27.485Z,119.60
2017-08-23T14:49:34.302Z,99.97
2017-08-23T14:51:41.712Z,97.73
2017-08-23T14:53:51.637Z,90.10
2017-08-23T14:56:00.900Z,89.83
2017-08-23T14:58:12.477Z,79.73
2017-08-23T15:00:23.984Z,73.37
2017-08-23T15:02:31.296Z,66.40
2017-08-23T15:04:43.359Z,63.00
2017-08-23T15:07:14.318Z,67.20
2017-08-23T15:09:22.008Z,52.40
2017-08-23T15:11:34.665Z,46.10
2017-08-23T15:13:41.945Z,46.33
2017-08-23T15:15:54.591Z,40.83
2017-08-23T15:18:11.261Z,38.00
2017-08-23T15:20:24.718Z,41.47
2017-08-23T15:22:31.234Z,34.33
2017-08-23T15:24:39.763Z,36.50
2017-08-23T15:26:51.698Z,35.80
2017-08-23T15:29:00.029Z,30.70
2017-08-23T15:31:09.307Z,34.50
2017-08-23T15:33:17.618Z,32.93
2017-08-23T15:35:26.680Z,30.70
2017-08-23T15:37:33.009Z,25.93
2017-08-23T15:39:40.158Z,25.23
2017-08-23T15:41:51.745Z,23.97
2017-08-23T15:44:02.370Z,27.63
2017-08-23T15:46:09.526Z,347.93
2017-08-23T15:48:16.924Z,278.53
2017-08-23T15:50:24.769Z,312.73
2017-08-23T15:52:31.275Z,144.70
2017-08-23T15:54:41.819Z,180.57
2017-08-23T15:56:53.023Z,231.40
2017-08-23T15:59:01.454Z,249.20
2017-08-23T16:01:07.678Z,230.17
2017-08-23T16:03:14.631Z,213.70
2017-08-23T16:05:22.976Z,209.47
2017-08-23T16:07:29.334Z,189.27
2017-08-23T16:09:36.588Z,176.40
2017-08-23T16:11:44.109Z,162.27
2017-08-23T16:13:55.418Z,150.00
2017-08-23T16:16:02.988Z,143.73
2017-08-23T16:18:13.014Z,133.60
2017-08-23T16:20:22.137Z,139.50
2017-08-23T16:22:32.534Z,124.30
2017-08-23T16:24:47.801Z,125.67
2017-08-23T16:26:56.914Z,111.87
2017-08-23T16:29:06.611Z,109.27
2017-08-23T16:31:12.927Z,103.20
2017-08-23T16:33:18.729Z,101.50
2017-08-23T16:35:26.369Z,100.63
2017-08-23T16:37:33.221Z,98.23
2017-08-23T16:39:39.852Z,94.50
2017-08-23T16:41:52.761Z,85.77
2017-08-23T16:44:03.993Z,74.03
2017-08-23T16:46:10.385Z,78.90
2017-08-23T16:48:18.900Z,72.17
2017-08-23T16:50:26.958Z,68.03
2017-08-23T16:52:35.597Z,65.97
2017-08-23T16:54:47.432Z,68.97
2017-08-23T16:56:55.516Z,64.27
2017-08-23T16:59:03.588Z,61.57
2017-08-23T17:01:10.051Z,68.17
2017-08-23T17:03:27.831Z,59.87
2017-08-23T17:05:35.059Z,53.40
2017-08-23T17:07:41.726Z,49.63
2017-08-23T17:09:50.315Z,50.97
2017-08-23T17:12:00.137Z,52.30
2017-08-23T17:14:08.117Z,47.60
2017-08-23T17:16:15.832Z,48.50
2017-08-23T17:18:23.030Z,44.70
2017-08-23T17:20:31.032Z,42.93
2017-08-23T17:22:39.414Z,37.23
2017-08-23T17:27:05.692Z,40.77
2017-08-23T17:29:12.478Z,34.27
2017-08-23T17:31:18.539Z,40.27
2017-08-23T17:33:24.327Z,41.20
2017-08-23T17:35:35.781Z,36.70
2017-08-23T17:37:44.391Z,30.23
2017-08-23T17:39:56.025Z,30.40
2017-08-23T17:42:03.372Z,27.30
2017-08-23T17:44:10.899Z,25.63
2017-08-23T17:46:17.446Z,26.20
2017-08-23T17:48:33.876Z,21.10
2017-08-23T17:51:15.235Z,20.87
2017-08-23T17:53:26.028Z,21.80
2017-08-23T17:55:31.898Z,20.07
2017-08-23T17:57:38.160Z,19.37
2017-08-23T17:59:48.904Z,29.60
2017-08-23T18:01:55.895Z,20.80
2017-08-23T18:04:05.840Z,21.73
2017-08-23T18:06:15.829Z,19.23
2017-08-23T18:08:28.804Z,18.53
2017-08-23T18:10:39.668Z,16.50
2017-08-23T18:12:52.598Z,17.30
2017-08-23T18:14:59.279Z,19.73
2017-08-23T18:17:07.899Z,13.33
2017-08-23T18:19:17.501Z,17.00
2017-08-23T18:21:25.380Z,15.37
2017-08-23T18:23:41.088Z,16.90
2017-08-23T18:25:52.418Z,12.60
2017-08-23T18:28:04.029Z,11.77
2017-08-23T18:30:16.223Z,10.53
2017-08-23T18:32:29.570Z,10.93
2017-08-23T18:34:45.465Z,11.73
2017-08-23T18:36:59.373Z,11.80
2017-08-23T18:39:10.147Z,10.57
2017-08-23T18:41:18.462Z,12.80
2017-08-23T18:43:28.333Z,8.67
2017-08-23T18:45:36.976Z,10.10
2017-08-23T18:47:44.268Z,16.70
2017-08-23T18:49:55.152Z,8.90
2017-08-23T18:52:07.785Z,10.53
2017-08-23T18:54:18.943Z,11.40
2017-08-23T18:56:28.229Z,13.83
2017-08-23T18:58:38.427Z,9.33
2017-08-23T19:00:56.921Z,9.07
2017-08-23T19:03:18.719Z,10.00
2017-08-23T19:05:49.378Z,9.40
2017-08-23T19:10:41.172Z,11.33
2017-08-23T19:12:55.260Z,9.07
2017-08-23T19:15:14.974Z,9.60
2017-08-23T19:17:30.702Z,8.63
2017-08-23T19:19:41.207Z,7.70
2017-08-23T19:21:56.191Z,8.90
2017-08-23T19:24:13.320Z,6.43
2017-08-23T19:26:21.981Z,10.00
2017-08-23T19:28:28.803Z,11.23
2017-08-23T19:30:39.132Z,9.97
2017-08-23T19:32:53.834Z,10.03
2017-08-23T19:35:05.943Z,9.30
2017-08-23T19:37:12.865Z,11.87
2017-08-23T19:39:19.221Z,9.30
2017-08-23T19:41:25.975Z,6.87
2017-08-23T19:43:33.532Z,12.73
2017-08-23T19:45:41.283Z,7.07
2017-08-23T19:47:50.745Z,8.10
2017-08-23T19:50:07.350Z,9.47
2017-08-23T19:52:13.914Z,7.10
2017-08-23T19:54:31.682Z,6.70
2017-08-23T19:56:39.519Z,7.53
2017-08-23T19:58:55.299Z,17.23
2017-08-23T20:01:07.872Z,9.27
2017-08-23T20:03:16.723Z,9.47
2017-08-23T20:05:22.588Z,7.63
2017-08-23T20:07:28.507Z,7.50
2017-08-23T20:09:34.538Z,6.70
2017-08-23T20:11:41.602Z,7.30
2017-08-23T20:13:52.219Z,6.50
2017-08-23T20:15:59.365Z,8.70
2017-08-23T20:18:05.227Z,6.13
2017-08-23T20:20:14.262Z,6.90
2017-08-23T20:22:20.753Z,7.40
2017-08-23T20:24:26.626Z,5.93
2017-08-23T20:26:33.105Z,6.20
2017-08-23T20:28:39.243Z,6.50
2017-08-23T20:30:46.255Z,7.17
2017-08-23T20:33:03.052Z,5.70
2017-08-23T20:35:14.824Z,6.10
2017-08-23T20:37:23.742Z,5.70
2017-08-23T20:39:39.825Z,6.53
2017-08-23T20:41:55.875Z,5.43
2017-08-23T20:44:03.410Z,11.53
2017-08-23T20:46:10.291Z,6.70
2017-08-23T20:48:16.971Z,6.33
2017-08-23T20:50:23.164Z,7.20
2017-08-23T20:52:29.534Z,6.57
2017-08-23T20:54:36.271Z,7.00
2017-08-23T20:56:44.437Z,10.83
2017-08-23T20:58:58.847Z,6.87
2017-08-23T21:01:06.715Z,6.43
2017-08-23T21:03:15.118Z,9.13
2017-08-23T21:05:22.349Z,5.80
2017-08-23T21:07:28.756Z,13.40
2017-08-23T21:09:35.455Z,6.40
2017-08-23T21:11:43.077Z,5.60
2017-08-23T21:13:52.925Z,8.67
2017-08-23T21:16:02.672Z,6.33
2017-08-23T21:18:09.533Z,5.80
2017-08-23T21:20:17.374Z,6.60
2017-08-23T21:22:23.624Z,6.30
2017-08-23T21:24:33.535Z,6.33
2017-08-23T21:26:39.941Z,5.93
2017-08-23T21:28:51.344Z,5.70
2017-08-23T21:30:58.571Z,9.73
2017-08-23T21:33:07.247Z,6.60
2017-08-23T21:35:14.370Z,7.70
2017-08-23T21:37:21.900Z,9.13
2017-08-23T21:39:28.714Z,6.63
2017-08-23T21:41:35.099Z,5.97
2017-08-23T21:43:40.996Z,6.13
2017-08-23T21:45:50.449Z,7.23
2017-08-23T21:48:04.393Z,6.97
2017-08-23T21:50:16.355Z,6.60
2017-08-23T21:52:26.099Z,6.87
2017-08-23T21:54:32.170Z,7.10
2017-08-23T21:56:38.733Z,6.73
2017-08-23T21:58:50.147Z,10.47
2017-08-23T22:00:59.368Z,8.73
2017-08-23T22:03:12.887Z,10.23
2017-08-23T22:05:19.679Z,7.83
2017-08-23T22:07:26.167Z,6.30
2017-08-23T22:09:34.306Z,6.27
2017-08-23T22:14:03.488Z,9.77
2017-08-23T22:16:19.880Z,6.73
2017-08-23T22:18:33.255Z,6.80
2017-08-23T22:23:00.647Z,8.53
2017-08-23T22:25:10.540Z,6.53
2017-08-23T22:27:23.905Z,6.70
2017-08-23T22:29:41.648Z,8.43
2017-08-23T22:31:50.699Z,5.97
2017-08-23T22:34:00.183Z,6.50
2017-08-23T22:36:07.317Z,6.00
2017-08-23T22:38:18.225Z,6.07
2017-08-23T22:40:24.384Z,7.57
2017-08-23T22:42:30.151Z,6.73
2017-08-23T22:44:38.218Z,16.17
2017-08-23T22:46:50.228Z,5.97
2017-08-23T22:48:59.996Z,8.23
2017-08-23T22:51:06.681Z,152.60
2017-08-23T22:55:30.481Z,548.13
2017-08-23T22:57:37.381Z,448.90
2017-08-23T22:59:44.960Z,309.97
2017-08-23T23:01:53.908Z,290.57
2017-08-23T23:04:01.952Z,596.03
2017-08-23T23:06:07.643Z,468.53
2017-08-23T23:08:18.487Z,562.33
2017-08-23T23:10:29.132Z,528.57
2017-08-23T23:12:49.454Z,466.23
2017-08-23T23:15:02.375Z,454.90
2017-08-23T23:17:09.507Z,382.67
2017-08-23T23:19:16.326Z,368.37
2017-08-23T23:21:24.141Z,318.07
2017-08-23T23:23:31.340Z,289.27
2017-08-23T23:25:37.704Z,285.93
2017-08-23T23:27:46.541Z,240.07
2017-08-23T23:29:53.340Z,258.57
2017-08-23T23:31:59.351Z,233.83
2017-08-23T23:34:04.795Z,191.90
2017-08-23T23:36:11.446Z,304.57
2017-08-23T23:38:17.694Z,250.63
2017-08-23T23:40:24.049Z,274.27
2017-08-23T23:42:34.711Z,413.87
2017-08-23T23:44:40.921Z,323.03
2017-08-23T23:46:52.391Z,245.27
2017-08-23T23:49:03.208Z,200.40
2017-08-23T23:51:10.071Z,183.90
2017-08-23T23:53:17.266Z,153.60
2017-08-23T23:55:24.372Z,117.13
2017-08-23T23:57:31.114Z,133.07
2017-08-23T23:59:37.254Z,100.67
